Terminal Aerodrome Forecast
Issued by NWS Green Bay, WI

Home | Current Version | Previous Version | Text Only | Print | Product List | Glossary Off
Versions: 1 2 3 4 5 6 7 8 9 10 11 12 13 14 15 16 17 18 19 20 21

000
FTUS43 KGRB 240534
TAFGRB
TAF
KGRB 240534Z 2406/2506 03010G15KT P6SM SCT009 BKN020
      TEMPO 2406/2410 5SM -RA BR BKN009 BKN015
     FM241000 03012G15KT 6SM -RA BR SCT009 BKN015
     FM241500 04012G16KT P6SM VCSH OVC012
     FM242300 04013KT P6SM BKN020=

USA.gov is the U.S. government's official web portal to all federal, state and local government web resources and services.